Medi Baltimore — ICLW — position and weather

sailwx.info

Track history (hours):
 
Tides and Currents Weather Stations Pressure Air Temp Water Temp Dewpoint Dewpoint Depression Visibility Wind Speed Wind Dir Waves Ship Positions

Medi Baltimore

Last reported at 2014-Oct-01 03:18 UTC. Time now 2014-Oct-01 04:14 UTC.
Position N 23°01' E 113°32'.

Length 225 m; draft 13.1 m.

Type: Cargo ship. MMSI: 247255300.

Date/timePositionNaut miles runAvg speedWind from/ knotsBaromVisibWave heightAir tempDewpointWater temp
2014-Oct-01 03:18N 23°01' E 113°32'0 0.0
2014-Oct-01 02:30N 23°01' E 113°32'0 0.0
2014-Oct-01 01:30N 23°01' E 113°32'0 0.0
2014-Oct-01 00:30N 23°01' E 113°32'0 0.0
2014-Sep-30 23:06N 23°01' E 113°32'0 0.0
2014-Sep-30 22:24N 23°01' E 113°32'0 0.0
2014-Sep-30 21:06N 23°01' E 113°32'0 0.0
2014-Sep-30 20:30N 23°01' E 113°32'0 0.0
2014-Sep-30 19:30N 23°01' E 113°32'0 0.0
2014-Sep-30 18:18N 23°01' E 113°32'0 0.0
2014-Sep-30 17:30N 23°01' E 113°32'0 0.0
2014-Sep-30 16:30N 23°01' E 113°32'0 0.0
2014-Sep-30 15:18N 23°01' E 113°32'0 0.0
2014-Sep-30 14:24N 23°01' E 113°32'0 0.0
2014-Sep-30 13:30N 23°01' E 113°32'0 0.0
2014-Sep-30 12:30N 23°01' E 113°32'0 0.0
2014-Sep-30 11:24N 23°01' E 113°32'0 0.0
2014-Sep-30 10:30N 23°01' E 113°32'0 0.0
2014-Sep-30 09:30N 23°01' E 113°32'0 0.0
2014-Sep-30 08:30N 23°01' E 113°32'0 0.0
2014-Sep-30 07:30N 23°01' E 113°32'0 0.0
2014-Sep-30 06:18N 23°01' E 113°32'0 0.0
2014-Sep-30 05:30N 23°01' E 113°32'0 0.0
2014-Sep-30 04:30N 23°01' E 113°32'0 0.0
2014-Sep-30 03:30N 23°01' E 113°32'0 0.0
2014-Sep-30 02:24N 23°01' E 113°32'0 0.0
2014-Sep-30 01:24N 23°01' E 113°32'0 0.0
2014-Sep-30 00:30N 23°01' E 113°32'0 0.0
2014-Sep-29 23:30N 23°01' E 113°32'0 0.0
2014-Sep-29 22:12N 23°01' E 113°32'0 0.0
2014-Sep-29 21:24N 23°01' E 113°32'0 0.0
2014-Sep-29 20:24N 23°01' E 113°32'0 0.0
2014-Sep-29 19:24N 23°01' E 113°32'0 0.0
2014-Sep-29 18:24N 23°01' E 113°32'0 0.0
2014-Sep-29 17:30N 23°01' E 113°32'0 0.0
2014-Sep-29 16:12N 23°01' E 113°32'0 0.0
2014-Sep-29 15:30N 23°01' E 113°32'0 0.0
2014-Sep-29 14:30N 23°01' E 113°32'0 0.0
2014-Sep-29 13:24N 23°01' E 113°32'0 0.0
2014-Sep-29 12:18N 23°01' E 113°32'0 0.0
2014-Sep-29 11:30N 23°01' E 113°32'0 0.0
2014-Sep-29 10:30N 23°01' E 113°32'0 0.0
2014-Sep-29 09:33N 23°01' E 113°32'3 3.4
2014-Sep-29 08:33N 22°58' E 113°33'8 7.8
2014-Sep-29 07:32N 22°50' E 113°35'8 7.6
2014-Sep-29 06:28N 22°44' E 113°40'0 0.3
2014-Sep-29 05:28N 22°44' E 113°41'0 0.0
2014-Sep-29 04:28N 22°43' E 113°41'0 0.1
2014-Sep-29 01:28N 22°43' E 113°41'0 0.0
2014-Sep-29 00:10N 22°43' E 113°41'0 0.0
2014-Sep-28 22:28N 22°43' E 113°41'0 0.1
2014-Sep-28 18:28N 22°43' E 113°40'0 0.0
2014-Sep-28 15:22N 22°43' E 113°41'0 0.1
2014-Sep-28 14:10N 22°44' E 113°41'0 0.4
2014-Sep-28 13:28N 22°43' E 113°41'0 0.0
2014-Sep-28 11:22N 22°43' E 113°41'0 0.0
2014-Sep-28 09:31N 22°43' E 113°41'5 4.6
2014-Sep-28 08:29N 22°39' E 113°42'1110.5
2014-Sep-28 07:26N 22°28' E 113°45'910.6
2014-Sep-28 06:33N 22°19' E 113°48'9 8.7
2014-Sep-28 05:33N 22°10' E 113°50'10 9.5
2014-Sep-28 04:33N 22°01' E 113°52'  
Track history (hours):
 
Tides and Currents Weather Stations Pressure Air Temp Water Temp Dewpoint Dewpoint Depression Visibility Wind Speed Wind Dir Waves Ship Positions

Medi Baltimore

Last reported at 2014-Oct-01 03:18 UTC. Time now 2014-Oct-01 04:14 UTC.
Position N 23°01' E 113°32'.

Length 225 m; draft 13.1 m.

Type: Cargo ship. MMSI: 247255300.

Date/timePositionNaut miles runAvg speedWind from/ knotsBaromVisibWave heightAir tempDewpointWater temp
2014-Oct-01 03:18N 23°01' E 113°32'0 0.0
2014-Oct-01 02:30N 23°01' E 113°32'0 0.0
2014-Oct-01 01:30N 23°01' E 113°32'0 0.0
2014-Oct-01 00:30N 23°01' E 113°32'0 0.0
2014-Sep-30 23:06N 23°01' E 113°32'0 0.0
2014-Sep-30 22:24N 23°01' E 113°32'0 0.0
2014-Sep-30 21:06N 23°01' E 113°32'0 0.0
2014-Sep-30 20:30N 23°01' E 113°32'0 0.0
2014-Sep-30 19:30N 23°01' E 113°32'0 0.0
2014-Sep-30 18:18N 23°01' E 113°32'0 0.0
2014-Sep-30 17:30N 23°01' E 113°32'0 0.0
2014-Sep-30 16:30N 23°01' E 113°32'0 0.0
2014-Sep-30 15:18N 23°01' E 113°32'0 0.0
2014-Sep-30 14:24N 23°01' E 113°32'0 0.0
2014-Sep-30 13:30N 23°01' E 113°32'0 0.0
2014-Sep-30 12:30N 23°01' E 113°32'0 0.0
2014-Sep-30 11:24N 23°01' E 113°32'0 0.0
2014-Sep-30 10:30N 23°01' E 113°32'0 0.0
2014-Sep-30 09:30N 23°01' E 113°32'0 0.0
2014-Sep-30 08:30N 23°01' E 113°32'0 0.0
2014-Sep-30 07:30N 23°01' E 113°32'0 0.0
2014-Sep-30 06:18N 23°01' E 113°32'0 0.0
2014-Sep-30 05:30N 23°01' E 113°32'0 0.0
2014-Sep-30 04:30N 23°01' E 113°32'0 0.0
2014-Sep-30 03:30N 23°01' E 113°32'0 0.0
2014-Sep-30 02:24N 23°01' E 113°32'0 0.0
2014-Sep-30 01:24N 23°01' E 113°32'0 0.0
2014-Sep-30 00:30N 23°01' E 113°32'0 0.0
2014-Sep-29 23:30N 23°01' E 113°32'0 0.0
2014-Sep-29 22:12N 23°01' E 113°32'0 0.0
2014-Sep-29 21:24N 23°01' E 113°32'0 0.0
2014-Sep-29 20:24N 23°01' E 113°32'0 0.0
2014-Sep-29 19:24N 23°01' E 113°32'0 0.0
2014-Sep-29 18:24N 23°01' E 113°32'0 0.0
2014-Sep-29 17:30N 23°01' E 113°32'0 0.0
2014-Sep-29 16:12N 23°01' E 113°32'0 0.0
2014-Sep-29 15:30N 23°01' E 113°32'0 0.0
2014-Sep-29 14:30N 23°01' E 113°32'0 0.0
2014-Sep-29 13:24N 23°01' E 113°32'0 0.0
2014-Sep-29 12:18N 23°01' E 113°32'0 0.0
2014-Sep-29 11:30N 23°01' E 113°32'0 0.0
2014-Sep-29 10:30N 23°01' E 113°32'0 0.0
2014-Sep-29 09:33N 23°01' E 113°32'3 3.4
2014-Sep-29 08:33N 22°58' E 113°33'8 7.8
2014-Sep-29 07:32N 22°50' E 113°35'8 7.6
2014-Sep-29 06:28N 22°44' E 113°40'0 0.3
2014-Sep-29 05:28N 22°44' E 113°41'0 0.0
2014-Sep-29 04:28N 22°43' E 113°41'0 0.1
2014-Sep-29 01:28N 22°43' E 113°41'0 0.0
2014-Sep-29 00:10N 22°43' E 113°41'0 0.0
2014-Sep-28 22:28N 22°43' E 113°41'0 0.1
2014-Sep-28 18:28N 22°43' E 113°40'0 0.0
2014-Sep-28 15:22N 22°43' E 113°41'0 0.1
2014-Sep-28 14:10N 22°44' E 113°41'0 0.4
2014-Sep-28 13:28N 22°43' E 113°41'0 0.0
2014-Sep-28 11:22N 22°43' E 113°41'0 0.0
2014-Sep-28 09:31N 22°43' E 113°41'5 4.6
2014-Sep-28 08:29N 22°39' E 113°42'1110.5
2014-Sep-28 07:26N 22°28' E 113°45'910.6
2014-Sep-28 06:33N 22°19' E 113°48'9 8.7
2014-Sep-28 05:33N 22°10' E 113°50'10 9.5
2014-Sep-28 04:33N 22°01' E 113°52'  

Dump ship's entire track history